Terminal Aerodrome Forecast
Issued by NWS

Home | Current Version | Previous Version | Text Only | Print | Product List | Glossary On
Versions: 1 2 3 4 5 6 7 8 9 10 11 12 13 14
000
FTUS45 KRIW 181700
TAFWRL
TAF
KWRL 181720Z 1818/1918 VRB04KT P6SM SKC
     FM190100 VRB04KT P6SM BKN080
     FM190800 VRB04KT P6SM VCFG FEW100
     FM191500 VRB04KT P6SM FEW090=

USA.gov is the U.S. government's official web portal to all federal, state and local government web resources and services.